sensor_id;sensor_type;location;lat;lon;timestamp;temperature;humidity
65598;SHT31;52267;51.984;20.956;2024-03-06T00:00:56;6.11;87.58
65598;SHT31;52267;51.984;20.956;2024-03-06T00:03:43;6.10;87.59
65598;SHT31;52267;51.984;20.956;2024-03-06T00:06:10;6.16;87.58
65598;SHT31;52267;51.984;20.956;2024-03-06T00:08:37;6.16;87.52
65598;SHT31;52267;51.984;20.956;2024-03-06T00:11:04;6.17;87.57
65598;SHT31;52267;51.984;20.956;2024-03-06T00:13:31;6.19;87.58
65598;SHT31;52267;51.984;20.956;2024-03-06T00:15:58;6.22;87.54
65598;SHT31;52267;51.984;20.956;2024-03-06T00:18:25;6.24;87.52
65598;SHT31;52267;51.984;20.956;2024-03-06T00:20:52;6.23;87.55
65598;SHT31;52267;51.984;20.956;2024-03-06T00:23:19;6.23;87.59
65598;SHT31;52267;51.984;20.956;2024-03-06T00:25:46;6.22;87.62
65598;SHT31;52267;51.984;20.956;2024-03-06T00:28:13;6.21;87.64
65598;SHT31;52267;51.984;20.956;2024-03-06T00:30:40;6.25;87.62
65598;SHT31;52267;51.984;20.956;2024-03-06T00:33:08;6.28;87.59
65598;SHT31;52267;51.984;20.956;2024-03-06T00:35:35;6.29;87.53
65598;SHT31;52267;51.984;20.956;2024-03-06T00:38:02;6.28;87.53
65598;SHT31;52267;51.984;20.956;2024-03-06T00:40:29;6.28;87.58
65598;SHT31;52267;51.984;20.956;2024-03-06T00:42:57;6.28;87.52
65598;SHT31;52267;51.984;20.956;2024-03-06T00:45:24;6.27;87.58
65598;SHT31;52267;51.984;20.956;2024-03-06T00:47:51;6.28;87.58
65598;SHT31;52267;51.984;20.956;2024-03-06T00:50:18;6.28;87.57
65598;SHT31;52267;51.984;20.956;2024-03-06T00:52:48;6.25;87.60
65598;SHT31;52267;51.984;20.956;2024-03-06T00:55:15;6.25;87.65
65598;SHT31;52267;51.984;20.956;2024-03-06T00:57:43;6.26;87.63
65598;SHT31;52267;51.984;20.956;2024-03-06T01:00:10;6.24;87.67
65598;SHT31;52267;51.984;20.956;2024-03-06T01:02:38;6.21;87.71
65598;SHT31;52267;51.984;20.956;2024-03-06T01:05:05;6.19;87.75
65598;SHT31;52267;51.984;20.956;2024-03-06T01:07:39;6.19;87.79
65598;SHT31;52267;51.984;20.956;2024-03-06T01:10:06;6.22;87.82
65598;SHT31;52267;51.984;20.956;2024-03-06T01:12:34;6.27;87.77
65598;SHT31;52267;51.984;20.956;2024-03-06T01:15:02;6.23;87.75
65598;SHT31;52267;51.984;20.956;2024-03-06T01:17:30;6.21;87.86
65598;SHT31;52267;51.984;20.956;2024-03-06T01:19:57;6.22;87.85
65598;SHT31;52267;51.984;20.956;2024-03-06T01:22:26;6.25;87.86
65598;SHT31;52267;51.984;20.956;2024-03-06T01:24:53;6.27;87.82
65598;SHT31;52267;51.984;20.956;2024-03-06T01:27:20;6.28;87.81
65598;SHT31;52267;51.984;20.956;2024-03-06T01:29:47;6.32;87.76
65598;SHT31;52267;51.984;20.956;2024-03-06T01:32:13;6.30;87.70
65598;SHT31;52267;51.984;20.956;2024-03-06T01:34:40;6.28;87.79
65598;SHT31;52267;51.984;20.956;2024-03-06T01:37:07;6.28;87.80
65598;SHT31;52267;51.984;20.956;2024-03-06T01:39:34;6.30;87.81
65598;SHT31;52267;51.984;20.956;2024-03-06T01:42:02;6.33;87.78
65598;SHT31;52267;51.984;20.956;2024-03-06T01:44:30;6.32;87.73
65598;SHT31;52267;51.984;20.956;2024-03-06T01:46:57;6.32;87.78
65598;SHT31;52267;51.984;20.956;2024-03-06T01:49:24;6.33;87.80
65598;SHT31;52267;51.984;20.956;2024-03-06T01:51:55;6.34;87.76
65598;SHT31;52267;51.984;20.956;2024-03-06T01:54:24;6.33;87.79
65598;SHT31;52267;51.984;20.956;2024-03-06T01:56:52;6.31;87.83
65598;SHT31;52267;51.984;20.956;2024-03-06T01:59:21;6.33;87.90
65598;SHT31;52267;51.984;20.956;2024-03-06T02:01:52;6.37;87.82
65598;SHT31;52267;51.984;20.956;2024-03-06T02:04:20;6.38;87.80
65598;SHT31;52267;51.984;20.956;2024-03-06T02:06:48;6.38;87.80
65598;SHT31;52267;51.984;20.956;2024-03-06T02:09:15;6.40;87.79
65598;SHT31;52267;51.984;20.956;2024-03-06T02:11:43;6.41;87.78
65598;SHT31;52267;51.984;20.956;2024-03-06T02:14:11;6.40;87.80
65598;SHT31;52267;51.984;20.956;2024-03-06T02:16:39;6.38;87.81
65598;SHT31;52267;51.984;20.956;2024-03-06T02:19:06;6.41;87.81
65598;SHT31;52267;51.984;20.956;2024-03-06T02:21:33;6.42;87.80
65598;SHT31;52267;51.984;20.956;2024-03-06T02:24:00;6.40;87.81
65598;SHT31;52267;51.984;20.956;2024-03-06T02:26:27;6.38;87.84
65598;SHT31;52267;51.984;20.956;2024-03-06T02:28:54;6.37;87.90
65598;SHT31;52267;51.984;20.956;2024-03-06T02:31:22;6.40;87.90
65598;SHT31;52267;51.984;20.956;2024-03-06T02:33:49;6.39;87.90
65598;SHT31;52267;51.984;20.956;2024-03-06T02:36:16;6.41;87.90
65598;SHT31;52267;51.984;20.956;2024-03-06T02:38:44;6.45;87.88
65598;SHT31;52267;51.984;20.956;2024-03-06T02:41:12;6.47;87.88
65598;SHT31;52267;51.984;20.956;2024-03-06T02:43:42;6.45;87.87
65598;SHT31;52267;51.984;20.956;2024-03-06T02:46:09;6.46;87.93
65598;SHT31;52267;51.984;20.956;2024-03-06T02:48:36;6.50;87.93
65598;SHT31;52267;51.984;20.956;2024-03-06T02:51:03;6.52;87.90
65598;SHT31;52267;51.984;20.956;2024-03-06T02:53:30;6.54;87.90
65598;SHT31;52267;51.984;20.956;2024-03-06T02:55:57;6.57;87.88
65598;SHT31;52267;51.984;20.956;2024-03-06T02:58:24;6.56;87.86
65598;SHT31;52267;51.984;20.956;2024-03-06T03:00:52;6.58;87.88
65598;SHT31;52267;51.984;20.956;2024-03-06T03:03:19;6.62;87.86
65598;SHT31;52267;51.984;20.956;2024-03-06T03:05:46;6.66;87.80
65598;SHT31;52267;51.984;20.956;2024-03-06T03:08:13;6.70;87.79
65598;SHT31;52267;51.984;20.956;2024-03-06T03:10:40;6.71;87.74
65598;SHT31;52267;51.984;20.956;2024-03-06T03:13:07;6.73;87.76
65598;SHT31;52267;51.984;20.956;2024-03-06T03:15:34;6.73;87.70
65598;SHT31;52267;51.984;20.956;2024-03-06T03:18:01;6.72;87.73
65598;SHT31;52267;51.984;20.956;2024-03-06T03:20:28;6.74;87.78
65598;SHT31;52267;51.984;20.956;2024-03-06T03:22:55;6.77;87.72
65598;SHT31;52267;51.984;20.956;2024-03-06T03:25:22;6.78;87.73
65598;SHT31;52267;51.984;20.956;2024-03-06T03:27:49;6.78;87.71
65598;SHT31;52267;51.984;20.956;2024-03-06T03:30:17;6.78;87.79
65598;SHT31;52267;51.984;20.956;2024-03-06T03:32:48;6.80;87.81
65598;SHT31;52267;51.984;20.956;2024-03-06T03:35:15;6.82;87.79
65598;SHT31;52267;51.984;20.956;2024-03-06T03:37:42;6.84;87.76
65598;SHT31;52267;51.984;20.956;2024-03-06T03:40:10;6.86;87.70
65598;SHT31;52267;51.984;20.956;2024-03-06T03:42:40;6.86;87.72
65598;SHT31;52267;51.984;20.956;2024-03-06T03:45:08;6.85;87.74
65598;SHT31;52267;51.984;20.956;2024-03-06T03:47:35;6.85;87.79
65598;SHT31;52267;51.984;20.956;2024-03-06T03:50:02;6.88;87.79
65598;SHT31;52267;51.984;20.956;2024-03-06T03:52:29;6.87;87.80
65598;SHT31;52267;51.984;20.956;2024-03-06T03:54:56;6.87;87.81
65598;SHT31;52267;51.984;20.956;2024-03-06T03:57:23;6.84;87.85
65598;SHT31;52267;51.984;20.956;2024-03-06T03:59:50;6.87;87.90
65598;SHT31;52267;51.984;20.956;2024-03-06T04:02:17;6.89;87.90
65598;SHT31;52267;51.984;20.956;2024-03-06T04:04:44;6.91;87.91
65598;SHT31;52267;51.984;20.956;2024-03-06T04:07:12;6.94;87.90
65598;SHT31;52267;51.984;20.956;2024-03-06T04:09:39;6.98;87.88
65598;SHT31;52267;51.984;20.956;2024-03-06T04:12:06;6.97;87.83
65598;SHT31;52267;51.984;20.956;2024-03-06T04:14:33;6.94;87.90
65598;SHT31;52267;51.984;20.956;2024-03-06T04:17:00;6.96;87.88
65598;SHT31;52267;51.984;20.956;2024-03-06T04:19:29;6.98;87.90
65598;SHT31;52267;51.984;20.956;2024-03-06T04:21:56;6.99;87.80
65598;SHT31;52267;51.984;20.956;2024-03-06T04:24:23;6.98;87.77
65598;SHT31;52267;51.984;20.956;2024-03-06T04:26:50;7.01;87.71
65598;SHT31;52267;51.984;20.956;2024-03-06T04:29:16;6.99;87.70
65598;SHT31;52267;51.984;20.956;2024-03-06T04:31:44;6.95;87.70
65598;SHT31;52267;51.984;20.956;2024-03-06T04:34:10;6.93;87.71
65598;SHT31;52267;51.984;20.956;2024-03-06T04:36:37;6.89;87.75
65598;SHT31;52267;51.984;20.956;2024-03-06T04:39:04;6.92;87.73
65598;SHT31;52267;51.984;20.956;2024-03-06T04:41:33;6.94;87.70
65598;SHT31;52267;51.984;20.956;2024-03-06T04:44:00;6.88;87.64
65598;SHT31;52267;51.984;20.956;2024-03-06T04:46:27;6.84;87.70
65598;SHT31;52267;51.984;20.956;2024-03-06T04:48:54;6.85;87.70
65598;SHT31;52267;51.984;20.956;2024-03-06T04:51:21;6.87;87.66
65598;SHT31;52267;51.984;20.956;2024-03-06T04:53:48;6.84;87.70
65598;SHT31;52267;51.984;20.956;2024-03-06T04:56:15;6.88;87.70
65598;SHT31;52267;51.984;20.956;2024-03-06T04:58:45;6.86;87.63
65598;SHT31;52267;51.984;20.956;2024-03-06T05:01:12;6.83;87.67
65598;SHT31;52267;51.984;20.956;2024-03-06T05:03:39;6.83;87.69
65598;SHT31;52267;51.984;20.956;2024-03-06T05:06:06;6.86;87.69
65598;SHT31;52267;51.984;20.956;2024-03-06T05:08:33;6.88;87.61
65598;SHT31;52267;51.984;20.956;2024-03-06T05:11:00;6.83;87.63
65598;SHT31;52267;51.984;20.956;2024-03-06T05:13:28;6.75;87.65
65598;SHT31;52267;51.984;20.956;2024-03-06T05:15:55;6.74;87.73
65598;SHT31;52267;51.984;20.956;2024-03-06T05:18:22;6.62;87.80
65598;SHT31;52267;51.984;20.956;2024-03-06T05:20:49;6.51;87.96
65598;SHT31;52267;51.984;20.956;2024-03-06T05:23:17;6.49;88.00
65598;SHT31;52267;51.984;20.956;2024-03-06T05:25:44;6.54;87.90
65598;SHT31;52267;51.984;20.956;2024-03-06T05:28:11;6.55;87.81
65598;SHT31;52267;51.984;20.956;2024-03-06T05:30:38;6.54;87.79
65598;SHT31;52267;51.984;20.956;2024-03-06T05:33:05;6.52;87.70
65598;SHT31;52267;51.984;20.956;2024-03-06T05:35:32;6.47;87.70
65598;SHT31;52267;51.984;20.956;2024-03-06T05:37:59;6.46;87.69
65598;SHT31;52267;51.984;20.956;2024-03-06T05:40:26;6.42;87.70
65598;SHT31;52267;51.984;20.956;2024-03-06T05:42:53;6.40;87.71
65598;SHT31;52267;51.984;20.956;2024-03-06T05:45:20;6.37;87.70
65598;SHT31;52267;51.984;20.956;2024-03-06T05:47:47;6.38;87.71
65598;SHT31;52267;51.984;20.956;2024-03-06T05:50:14;6.41;87.65
65598;SHT31;52267;51.984;20.956;2024-03-06T05:52:42;6.43;87.61
65598;SHT31;52267;51.984;20.956;2024-03-06T05:55:09;6.39;87.54
65598;SHT31;52267;51.984;20.956;2024-03-06T05:57:36;6.36;87.53
65598;SHT31;52267;51.984;20.956;2024-03-06T06:00:03;6.40;87.54
65598;SHT31;52267;51.984;20.956;2024-03-06T06:02:37;6.34;87.45
65598;SHT31;52267;51.984;20.956;2024-03-06T06:05:05;6.24;87.52
65598;SHT31;52267;51.984;20.956;2024-03-06T06:07:33;6.22;87.59
65598;SHT31;52267;51.984;20.956;2024-03-06T06:10:00;6.21;87.58
65598;SHT31;52267;51.984;20.956;2024-03-06T06:12:27;6.23;87.53
65598;SHT31;52267;51.984;20.956;2024-03-06T06:14:54;6.26;87.52
65598;SHT31;52267;51.984;20.956;2024-03-06T06:17:21;6.30;87.43
65598;SHT31;52267;51.984;20.956;2024-03-06T06:19:49;6.30;87.36
65598;SHT31;52267;51.984;20.956;2024-03-06T06:22:16;6.32;87.27
65598;SHT31;52267;51.984;20.956;2024-03-06T06:24:43;6.33;87.15
65598;SHT31;52267;51.984;20.956;2024-03-06T06:27:12;6.23;87.12
65598;SHT31;52267;51.984;20.956;2024-03-06T06:29:39;6.27;87.15
65598;SHT31;52267;51.984;20.956;2024-03-06T06:32:06;6.25;86.99
65598;SHT31;52267;51.984;20.956;2024-03-06T06:34:33;6.17;87.03
65598;SHT31;52267;51.984;20.956;2024-03-06T06:37:00;6.17;87.04
65598;SHT31;52267;51.984;20.956;2024-03-06T06:39:27;6.20;87.01
65598;SHT31;52267;51.984;20.956;2024-03-06T06:41:54;6.23;86.94
65598;SHT31;52267;51.984;20.956;2024-03-06T06:44:22;6.24;86.89
65598;SHT31;52267;51.984;20.956;2024-03-06T06:46:49;6.22;86.79
65598;SHT31;52267;51.984;20.956;2024-03-06T06:49:16;6.03;86.71
65598;SHT31;52267;51.984;20.956;2024-03-06T06:51:44;5.99;86.79
65598;SHT31;52267;51.984;20.956;2024-03-06T06:54:11;5.92;86.79
65598;SHT31;52267;51.984;20.956;2024-03-06T06:56:38;5.89;86.64
65598;SHT31;52267;51.984;20.956;2024-03-06T06:59:05;5.89;86.79
65598;SHT31;52267;51.984;20.956;2024-03-06T07:01:32;5.96;86.73
65598;SHT31;52267;51.984;20.956;2024-03-06T07:03:59;5.99;86.70
65598;SHT31;52267;51.984;20.956;2024-03-06T07:06:28;6.05;86.65
65598;SHT31;52267;51.984;20.956;2024-03-06T07:08:55;6.10;86.59
65598;SHT31;52267;51.984;20.956;2024-03-06T07:11:22;6.08;86.43
65598;SHT31;52267;51.984;20.956;2024-03-06T07:13:50;6.07;86.38
65598;SHT31;52267;51.984;20.956;2024-03-06T07:16:17;6.00;86.27
65598;SHT31;52267;51.984;20.956;2024-03-06T07:18:45;5.97;86.35
65598;SHT31;52267;51.984;20.956;2024-03-06T07:21:13;5.91;86.46
65598;SHT31;52267;51.984;20.956;2024-03-06T07:23:40;5.95;86.51
65598;SHT31;52267;51.984;20.956;2024-03-06T07:26:07;6.00;86.46
65598;SHT31;52267;51.984;20.956;2024-03-06T07:28:34;6.01;86.32
65598;SHT31;52267;51.984;20.956;2024-03-06T07:31:01;6.02;86.32
65598;SHT31;52267;51.984;20.956;2024-03-06T07:33:31;6.06;86.31
65598;SHT31;52267;51.984;20.956;2024-03-06T07:36:00;6.02;86.20
65598;SHT31;52267;51.984;20.956;2024-03-06T07:38:27;6.03;86.24
65598;SHT31;52267;51.984;20.956;2024-03-06T07:40:54;6.02;86.20
65598;SHT31;52267;51.984;20.956;2024-03-06T07:43:21;5.99;86.04
65598;SHT31;52267;51.984;20.956;2024-03-06T07:45:49;5.98;85.99
65598;SHT31;52267;51.984;20.956;2024-03-06T07:48:16;6.02;85.97
65598;SHT31;52267;51.984;20.956;2024-03-06T07:50:43;5.97;85.79
65598;SHT31;52267;51.984;20.956;2024-03-06T07:53:11;6.02;85.88
65598;SHT31;52267;51.984;20.956;2024-03-06T07:55:37;6.14;85.89
65598;SHT31;52267;51.984;20.956;2024-03-06T07:58:04;6.09;85.42
65598;SHT31;52267;51.984;20.956;2024-03-06T08:00:30;6.16;85.70
65598;SHT31;52267;51.984;20.956;2024-03-06T08:02:57;6.20;85.43
65598;SHT31;52267;51.984;20.956;2024-03-06T08:05:23;6.17;85.34
65598;SHT31;52267;51.984;20.956;2024-03-06T08:07:49;6.25;85.33
65598;SHT31;52267;51.984;20.956;2024-03-06T08:10:15;6.25;85.24
65598;SHT31;52267;51.984;20.956;2024-03-06T08:12:44;6.26;85.12
65598;SHT31;52267;51.984;20.956;2024-03-06T08:15:13;6.29;85.21
65598;SHT31;52267;51.984;20.956;2024-03-06T08:17:41;6.34;84.81
65598;SHT31;52267;51.984;20.956;2024-03-06T08:20:09;6.28;84.31
65598;SHT31;52267;51.984;20.956;2024-03-06T08:22:37;6.36;84.77
65598;SHT31;52267;51.984;20.956;2024-03-06T08:25:06;6.46;84.78
65598;SHT31;52267;51.984;20.956;2024-03-06T08:27:41;6.47;84.74
65598;SHT31;52267;51.984;20.956;2024-03-06T08:30:08;6.46;84.70
65598;SHT31;52267;51.984;20.956;2024-03-06T08:32:35;6.55;84.81
65598;SHT31;52267;51.984;20.956;2024-03-06T08:35:03;6.70;84.80
65598;SHT31;52267;51.984;20.956;2024-03-06T08:37:37;6.81;84.66
65598;SHT31;52267;51.984;20.956;2024-03-06T08:40:05;6.86;84.58
65598;SHT31;52267;51.984;20.956;2024-03-06T08:42:52;6.94;84.54
65598;SHT31;52267;51.984;20.956;2024-03-06T08:45:18;6.97;84.49
65598;SHT31;52267;51.984;20.956;2024-03-06T08:47:44;6.91;83.83
65598;SHT31;52267;51.984;20.956;2024-03-06T08:50:12;6.73;83.51
65598;SHT31;52267;51.984;20.956;2024-03-06T08:52:38;6.67;83.64
65598;SHT31;52267;51.984;20.956;2024-03-06T08:55:04;6.55;83.49
65598;SHT31;52267;51.984;20.956;2024-03-06T08:57:32;6.49;83.86
65598;SHT31;52267;51.984;20.956;2024-03-06T08:59:58;6.55;83.99
65598;SHT31;52267;51.984;20.956;2024-03-06T09:02:25;6.56;83.77
65598;SHT31;52267;51.984;20.956;2024-03-06T09:04:51;6.53;83.86
65598;SHT31;52267;51.984;20.956;2024-03-06T09:07:18;6.53;83.86
65598;SHT31;52267;51.984;20.956;2024-03-06T09:09:49;6.51;83.68
65598;SHT31;52267;51.984;20.956;2024-03-06T09:12:17;6.47;83.55
65598;SHT31;52267;51.984;20.956;2024-03-06T09:14:43;6.40;83.59
65598;SHT31;52267;51.984;20.956;2024-03-06T09:17:10;6.42;83.78
65598;SHT31;52267;51.984;20.956;2024-03-06T09:19:40;6.49;83.70
65598;SHT31;52267;51.984;20.956;2024-03-06T09:22:07;6.55;83.66
65598;SHT31;52267;51.984;20.956;2024-03-06T09:24:33;6.60;83.57
65598;SHT31;52267;51.984;20.956;2024-03-06T09:27:02;6.58;83.31
65598;SHT31;52267;51.984;20.956;2024-03-06T09:29:28;6.52;83.28
65598;SHT31;52267;51.984;20.956;2024-03-06T09:31:54;6.55;83.40
65598;SHT31;52267;51.984;20.956;2024-03-06T09:34:20;6.66;83.28
65598;SHT31;52267;51.984;20.956;2024-03-06T09:36:48;6.65;82.87
65598;SHT31;52267;51.984;20.956;2024-03-06T09:39:15;6.73;83.11
65598;SHT31;52267;51.984;20.956;2024-03-06T09:41:48;6.82;83.11
65598;SHT31;52267;51.984;20.956;2024-03-06T09:44:16;6.93;83.12
65598;SHT31;52267;51.984;20.956;2024-03-06T09:46:46;7.01;82.96
65598;SHT31;52267;51.984;20.956;2024-03-06T09:49:15;7.06;82.41
65598;SHT31;52267;51.984;20.956;2024-03-06T09:51:43;6.95;81.38
65598;SHT31;52267;51.984;20.956;2024-03-06T09:54:16;6.97;82.18
65598;SHT31;52267;51.984;20.956;2024-03-06T09:56:46;6.89;81.78
65598;SHT31;52267;51.984;20.956;2024-03-06T09:59:13;6.78;81.75
65598;SHT31;52267;51.984;20.956;2024-03-06T10:01:50;6.88;82.32
65598;SHT31;52267;51.984;20.956;2024-03-06T10:04:26;6.95;82.44
65598;SHT31;52267;51.984;20.956;2024-03-06T10:06:54;6.94;82.38
65598;SHT31;52267;51.984;20.956;2024-03-06T10:09:23;6.99;82.60
65598;SHT31;52267;51.984;20.956;2024-03-06T10:11:51;7.08;82.37
65598;SHT31;52267;51.984;20.956;2024-03-06T10:14:23;7.07;82.28
65598;SHT31;52267;51.984;20.956;2024-03-06T10:16:53;7.11;82.32
65598;SHT31;52267;51.984;20.956;2024-03-06T10:19:28;7.14;82.34
65598;SHT31;52267;51.984;20.956;2024-03-06T10:21:58;7.10;82.13
65598;SHT31;52267;51.984;20.956;2024-03-06T10:24:25;7.00;82.09
65598;SHT31;52267;51.984;20.956;2024-03-06T10:26:55;7.04;82.33
65598;SHT31;52267;51.984;20.956;2024-03-06T10:29:24;7.02;82.24
65598;SHT31;52267;51.984;20.956;2024-03-06T10:31:53;6.84;81.55
65598;SHT31;52267;51.984;20.956;2024-03-06T10:34:20;6.78;81.80
65598;SHT31;52267;51.984;20.956;2024-03-06T10:36:49;6.76;82.09
65598;SHT31;52267;51.984;20.956;2024-03-06T10:39:21;6.74;81.89
65598;SHT31;52267;51.984;20.956;2024-03-06T10:41:51;6.64;81.86
65598;SHT31;52267;51.984;20.956;2024-03-06T10:44:23;6.64;82.04
65598;SHT31;52267;51.984;20.956;2024-03-06T10:46:59;6.59;81.99
65598;SHT31;52267;51.984;20.956;2024-03-06T10:49:28;6.55;81.99
65598;SHT31;52267;51.984;20.956;2024-03-06T10:51:59;6.60;82.08
65598;SHT31;52267;51.984;20.956;2024-03-06T10:54:33;6.65;82.01
65598;SHT31;52267;51.984;20.956;2024-03-06T10:57:00;6.67;81.93
65598;SHT31;52267;51.984;20.956;2024-03-06T10:59:28;6.69;81.85
65598;SHT31;52267;51.984;20.956;2024-03-06T11:01:55;6.68;81.64
65598;SHT31;52267;51.984;20.956;2024-03-06T11:04:24;6.66;81.76
65598;SHT31;52267;51.984;20.956;2024-03-06T11:06:56;6.61;80.89
65598;SHT31;52267;51.984;20.956;2024-03-06T11:09:25;6.48;80.95
65598;SHT31;52267;51.984;20.956;2024-03-06T11:12:05;6.50;81.42
65598;SHT31;52267;51.984;20.956;2024-03-06T11:14:32;6.45;80.85
65598;SHT31;52267;51.984;20.956;2024-03-06T11:17:02;6.42;81.11
65598;SHT31;52267;51.984;20.956;2024-03-06T11:28:16;6.38;81.29
65598;SHT31;52267;51.984;20.956;2024-03-06T11:31:05;6.43;81.19
65598;SHT31;52267;51.984;20.956;2024-03-06T11:36:14;6.38;80.80
65598;SHT31;52267;51.984;20.956;2024-03-06T11:38:53;6.38;81.01
65598;SHT31;52267;51.984;20.956;2024-03-06T11:41:24;6.40;80.97
65598;SHT31;52267;51.984;20.956;2024-03-06T11:43:52;6.32;80.65
65598;SHT31;52267;51.984;20.956;2024-03-06T11:46:21;6.13;80.01
65598;SHT31;52267;51.984;20.956;2024-03-06T11:48:52;6.00;80.37
65598;SHT31;52267;51.984;20.956;2024-03-06T11:51:24;6.03;80.56
65598;SHT31;52267;51.984;20.956;2024-03-06T11:53:51;6.11;80.56
65598;SHT31;52267;51.984;20.956;2024-03-06T11:56:19;6.18;80.64
65598;SHT31;52267;51.984;20.956;2024-03-06T11:58:46;6.20;80.33
65598;SHT31;52267;51.984;20.956;2024-03-06T12:01:13;6.07;80.07
65598;SHT31;52267;51.984;20.956;2024-03-06T12:03:41;6.12;80.41
65598;SHT31;52267;51.984;20.956;2024-03-06T12:06:08;6.17;80.52
65598;SHT31;52267;51.984;20.956;2024-03-06T12:08:34;6.24;80.59
65598;SHT31;52267;51.984;20.956;2024-03-06T12:11:03;6.22;80.37
65598;SHT31;52267;51.984;20.956;2024-03-06T12:13:31;6.14;79.43
65598;SHT31;52267;51.984;20.956;2024-03-06T12:15:58;6.10;79.92
65598;SHT31;52267;51.984;20.956;2024-03-06T12:18:24;6.14;80.25
65598;SHT31;52267;51.984;20.956;2024-03-06T12:20:50;6.14;80.24
65598;SHT31;52267;51.984;20.956;2024-03-06T12:23:20;6.18;80.40
65598;SHT31;52267;51.984;20.956;2024-03-06T12:25:48;6.28;80.35
65598;SHT31;52267;51.984;20.956;2024-03-06T12:28:14;6.33;80.31
65598;SHT31;52267;51.984;20.956;2024-03-06T12:30:44;6.27;79.56
65598;SHT31;52267;51.984;20.956;2024-03-06T12:33:10;6.22;79.52
65598;SHT31;52267;51.984;20.956;2024-03-06T12:35:40;6.09;79.10
65598;SHT31;52267;51.984;20.956;2024-03-06T12:38:12;6.09;79.40
65598;SHT31;52267;51.984;20.956;2024-03-06T12:40:40;6.19;79.84
65598;SHT31;52267;51.984;20.956;2024-03-06T12:43:07;6.20;79.79
65598;SHT31;52267;51.984;20.956;2024-03-06T12:45:34;6.26;79.92
65598;SHT31;52267;51.984;20.956;2024-03-06T12:48:02;6.26;79.88
65598;SHT31;52267;51.984;20.956;2024-03-06T12:50:31;6.29;79.86
65598;SHT31;52267;51.984;20.956;2024-03-06T12:52:57;6.30;79.35
65598;SHT31;52267;51.984;20.956;2024-03-06T12:55:24;6.23;78.93
65598;SHT31;52267;51.984;20.956;2024-03-06T12:57:51;6.26;79.14
65598;SHT31;52267;51.984;20.956;2024-03-06T13:00:17;6.30;79.26
65598;SHT31;52267;51.984;20.956;2024-03-06T13:02:44;6.25;78.71
65598;SHT31;52267;51.984;20.956;2024-03-06T13:05:11;6.24;79.01
65598;SHT31;52267;51.984;20.956;2024-03-06T13:07:38;6.17;78.74
65598;SHT31;52267;51.984;20.956;2024-03-06T13:10:07;6.23;79.22
65598;SHT31;52267;51.984;20.956;2024-03-06T13:12:38;6.28;79.21
65598;SHT31;52267;51.984;20.956;2024-03-06T13:15:04;6.31;79.18
65598;SHT31;52267;51.984;20.956;2024-03-06T13:17:33;6.25;78.70
65598;SHT31;52267;51.984;20.956;2024-03-06T13:19:59;6.13;77.69
65598;SHT31;52267;51.984;20.956;2024-03-06T13:22:26;6.07;78.33
65598;SHT31;52267;51.984;20.956;2024-03-06T13:24:52;6.08;78.43
65598;SHT31;52267;51.984;20.956;2024-03-06T13:27:18;6.16;78.74
65598;SHT31;52267;51.984;20.956;2024-03-06T13:29:44;6.19;78.67
65598;SHT31;52267;51.984;20.956;2024-03-06T13:32:10;6.17;78.66
65598;SHT31;52267;51.984;20.956;2024-03-06T13:34:36;6.10;78.37
65598;SHT31;52267;51.984;20.956;2024-03-06T13:37:02;5.94;77.23
65598;SHT31;52267;51.984;20.956;2024-03-06T13:39:28;5.88;77.61
65598;SHT31;52267;51.984;20.956;2024-03-06T13:41:54;5.92;78.06
65598;SHT31;52267;51.984;20.956;2024-03-06T13:44:20;5.98;77.73
65598;SHT31;52267;51.984;20.956;2024-03-06T13:46:46;6.02;77.61
65598;SHT31;52267;51.984;20.956;2024-03-06T13:49:33;6.13;77.93
65598;SHT31;52267;51.984;20.956;2024-03-06T13:52:08;6.14;77.95
65598;SHT31;52267;51.984;20.956;2024-03-06T13:54:37;6.03;77.21
65598;SHT31;52267;51.984;20.956;2024-03-06T13:57:08;5.94;77.21
65598;SHT31;52267;51.984;20.956;2024-03-06T13:59:34;5.89;77.22
65598;SHT31;52267;51.984;20.956;2024-03-06T14:02:01;5.84;77.02
65598;SHT31;52267;51.984;20.956;2024-03-06T14:04:30;5.86;77.28
65598;SHT31;52267;51.984;20.956;2024-03-06T14:06:56;5.92;77.67
65598;SHT31;52267;51.984;20.956;2024-03-06T14:09:22;5.97;77.45
65598;SHT31;52267;51.984;20.956;2024-03-06T14:11:50;6.00;76.82
65598;SHT31;52267;51.984;20.956;2024-03-06T14:14:19;6.07;76.61
65598;SHT31;52267;51.984;20.956;2024-03-06T14:16:46;6.11;76.79
65598;SHT31;52267;51.984;20.956;2024-03-06T14:19:12;6.13;76.73
65598;SHT31;52267;51.984;20.956;2024-03-06T14:21:39;6.16;76.40
65598;SHT31;52267;51.984;20.956;2024-03-06T14:24:05;6.09;75.34
65598;SHT31;52267;51.984;20.956;2024-03-06T14:26:31;6.15;76.38
65598;SHT31;52267;51.984;20.956;2024-03-06T14:29:02;6.20;75.53
65598;SHT31;52267;51.984;20.956;2024-03-06T14:31:31;6.11;74.85
65598;SHT31;52267;51.984;20.956;2024-03-06T14:33:57;6.07;75.12
65598;SHT31;52267;51.984;20.956;2024-03-06T14:36:23;6.05;74.93
65598;SHT31;52267;51.984;20.956;2024-03-06T14:38:52;6.07;75.54
65598;SHT31;52267;51.984;20.956;2024-03-06T14:41:21;6.13;75.76
65598;SHT31;52267;51.984;20.956;2024-03-06T14:43:47;6.05;74.65
65598;SHT31;52267;51.984;20.956;2024-03-06T14:46:13;6.03;75.54
65598;SHT31;52267;51.984;20.956;2024-03-06T14:48:39;6.04;75.45
65598;SHT31;52267;51.984;20.956;2024-03-06T14:51:06;6.07;75.58
65598;SHT31;52267;51.984;20.956;2024-03-06T14:53:32;6.13;75.78
65598;SHT31;52267;51.984;20.956;2024-03-06T14:55:59;6.18;76.11
65598;SHT31;52267;51.984;20.956;2024-03-06T14:58:26;6.26;76.14
65598;SHT31;52267;51.984;20.956;2024-03-06T15:00:52;6.28;76.14
65598;SHT31;52267;51.984;20.956;2024-03-06T15:03:18;6.28;75.93
65598;SHT31;52267;51.984;20.956;2024-03-06T15:05:44;6.28;75.81
65598;SHT31;52267;51.984;20.956;2024-03-06T15:08:12;6.20;75.77
65598;SHT31;52267;51.984;20.956;2024-03-06T15:10:42;6.16;74.99
65598;SHT31;52267;51.984;20.956;2024-03-06T15:13:08;6.11;74.44
65598;SHT31;52267;51.984;20.956;2024-03-06T15:15:38;6.10;75.26
65598;SHT31;52267;51.984;20.956;2024-03-06T15:18:05;6.09;74.84
65598;SHT31;52267;51.984;20.956;2024-03-06T15:20:31;5.93;73.70
65598;SHT31;52267;51.984;20.956;2024-03-06T15:22:59;5.93;74.84
65598;SHT31;52267;51.984;20.956;2024-03-06T15:25:25;5.98;74.95
65598;SHT31;52267;51.984;20.956;2024-03-06T15:27:51;5.96;75.11
65598;SHT31;52267;51.984;20.956;2024-03-06T15:30:17;6.00;75.28
65598;SHT31;52267;51.984;20.956;2024-03-06T15:32:44;6.05;75.41
65598;SHT31;52267;51.984;20.956;2024-03-06T15:35:10;6.11;75.43
65598;SHT31;52267;51.984;20.956;2024-03-06T15:37:37;6.16;75.49
65598;SHT31;52267;51.984;20.956;2024-03-06T15:40:03;6.12;75.23
65598;SHT31;52267;51.984;20.956;2024-03-06T15:42:31;6.07;74.60
65598;SHT31;52267;51.984;20.956;2024-03-06T15:44:57;6.07;74.99